MCO weather

Orlando International Airport
Orlando, Florida, United States

Public forecast

Using degrees Fahrenheit for public forecast. Weather courtesy of forecast.io.

Current aviation weather report (METAR) for Orlando International Airport

Retrieved 2020/05/27 08:53 UTC (38 minutes ago):

KMCO 270853Z 17004KT 10SM SCT017 SCT024 23/22 A2991 RMK AO2 SLP128 T02330222 53006

Aviation forecast (TAF) for Orlando International Airport

Retrieved 2020/05/27 06:30 UTC (3 hours ago):

TAF KMCO 270527Z 2706/2812 VRB02KT P6SM SCT025 BKN050 FM270900 20004KT P6SM SCT010 TEMPO 2709/2713 BKN010 FM271400 22007KT P6SM SCT030 SCT250 FM271900 23008KT P6SM VCTS SCT040CB BKN060 FM272300 19006KT P6SM SCT050 BKN250